createdAt,value
2023-06-07T00:00:35.466Z,18.31
2023-06-07T00:02:43.662Z,18.29
2023-06-07T00:04:47.521Z,18.30
2023-06-07T00:06:50.244Z,18.31
2023-06-07T00:08:53.914Z,18.31
2023-06-07T00:10:56.638Z,18.33
2023-06-07T00:13:00.720Z,18.36
2023-06-07T00:15:03.460Z,18.38
2023-06-07T00:17:06.332Z,18.37
2023-06-07T00:19:09.399Z,18.40
2023-06-07T00:21:12.062Z,18.45
2023-06-07T00:23:15.375Z,18.49
2023-06-07T00:25:18.072Z,18.51
2023-06-07T00:27:21.109Z,18.49
2023-06-07T00:29:25.094Z,18.45
2023-06-07T00:31:27.870Z,18.41
2023-06-07T00:33:30.622Z,18.38
2023-06-07T00:35:33.282Z,18.33
2023-06-07T00:37:36.035Z,18.24
2023-06-07T00:39:38.631Z,18.17
2023-06-07T00:41:41.275Z,18.10
2023-06-07T00:43:45.678Z,18.06
2023-06-07T00:45:49.842Z,18.06
2023-06-07T00:47:52.741Z,18.08
2023-06-07T00:49:58.720Z,18.10
2023-06-07T00:52:01.619Z,18.13
2023-06-07T00:54:08.311Z,18.13
2023-06-07T00:56:11.305Z,18.11
2023-06-07T00:58:14.024Z,18.06
2023-06-07T01:00:17.133Z,17.98
2023-06-07T01:02:21.200Z,17.89
2023-06-07T01:04:25.272Z,17.82
2023-06-07T01:06:28.137Z,17.78
2023-06-07T01:08:31.163Z,17.77
2023-06-07T01:10:33.807Z,17.77
2023-06-07T01:12:37.319Z,17.73
2023-06-07T01:14:41.401Z,17.71
2023-06-07T01:16:49.709Z,17.69
2023-06-07T01:18:54.684Z,17.66
2023-06-07T01:20:59.760Z,17.60
2023-06-07T01:23:07.343Z,17.53
2023-06-07T01:25:11.805Z,17.45
2023-06-07T01:27:15.236Z,17.38
2023-06-07T01:29:18.129Z,17.35
2023-06-07T01:31:22.850Z,17.32
2023-06-07T01:33:26.418Z,17.28
2023-06-07T01:35:30.984Z,17.25
2023-06-07T01:37:34.280Z,17.24
2023-06-07T01:39:38.324Z,17.22
2023-06-07T01:41:43.743Z,17.19
2023-06-07T01:43:49.450Z,17.16
2023-06-07T01:45:54.016Z,17.11
2023-06-07T01:47:56.818Z,17.07
2023-06-07T01:49:59.517Z,17.06
2023-06-07T01:52:02.134Z,17.07
2023-06-07T01:54:06.351Z,17.10
2023-06-07T01:56:15.369Z,17.14
2023-06-07T01:58:27.486Z,17.16
2023-06-07T02:00:37.124Z,17.15
2023-06-07T02:06:06.176Z,17.08
2023-06-07T02:08:15.259Z,17.06
2023-06-07T02:10:22.254Z,17.03
2023-06-07T02:12:25.548Z,16.96
2023-06-07T02:14:30.715Z,16.90
2023-06-07T02:16:35.912Z,16.85
2023-06-07T02:18:42.012Z,16.82
2023-06-07T02:20:45.015Z,16.82
2023-06-07T02:22:50.720Z,16.79
2023-06-07T02:24:53.651Z,16.77
2023-06-07T02:26:56.862Z,16.77
2023-06-07T02:28:59.480Z,16.78
2023-06-07T02:31:04.219Z,16.77
2023-06-07T02:33:08.151Z,16.74
2023-06-07T02:35:11.044Z,16.69
2023-06-07T02:37:13.936Z,16.65
2023-06-07T02:39:17.129Z,16.61
2023-06-07T02:41:19.959Z,16.56
2023-06-07T02:43:22.568Z,16.53
2023-06-07T02:45:25.260Z,16.51
2023-06-07T02:47:29.357Z,16.53
2023-06-07T02:49:31.978Z,16.52
2023-06-07T02:51:34.626Z,16.50
2023-06-07T02:53:38.234Z,16.47
2023-06-07T02:55:43.387Z,16.44
2023-06-07T02:57:46.581Z,16.43
2023-06-07T02:59:49.408Z,16.40
2023-06-07T03:01:52.048Z,16.38
2023-06-07T03:03:56.395Z,16.33
2023-06-07T03:06:01.009Z,16.29
2023-06-07T03:08:03.823Z,16.27
2023-06-07T03:10:07.615Z,16.27
2023-06-07T03:12:11.411Z,16.25
2023-06-07T03:14:13.987Z,16.21
2023-06-07T03:16:17.247Z,16.19
2023-06-07T03:18:20.597Z,16.17
2023-06-07T03:20:24.593Z,16.18
2023-06-07T03:22:27.240Z,16.17
2023-06-07T03:24:30.142Z,16.17
2023-06-07T03:26:33.316Z,16.18
2023-06-07T03:28:36.017Z,16.18
2023-06-07T03:30:38.618Z,16.19
2023-06-07T03:32:41.380Z,16.18
2023-06-07T03:34:44.371Z,16.15
2023-06-07T03:36:48.866Z,16.14
2023-06-07T03:38:51.496Z,16.13
2023-06-07T03:40:54.102Z,16.14
2023-06-07T03:42:56.724Z,16.15
2023-06-07T03:44:59.325Z,16.13
2023-06-07T03:47:01.974Z,16.10
2023-06-07T03:49:04.724Z,16.07
2023-06-07T03:51:07.788Z,16.04
2023-06-07T03:53:12.105Z,16.03
2023-06-07T03:55:16.160Z,16.02
2023-06-07T03:57:19.137Z,15.99
2023-06-07T03:59:22.065Z,15.99
2023-06-07T04:01:26.819Z,15.98
2023-06-07T04:03:30.799Z,15.97
2023-06-07T04:05:39.673Z,15.97
2023-06-07T04:07:43.135Z,15.94
2023-06-07T04:09:47.215Z,15.92
2023-06-07T04:11:49.835Z,15.88
2023-06-07T04:13:52.431Z,15.90
2023-06-07T04:15:55.262Z,15.93
2023-06-07T04:17:57.911Z,15.97
2023-06-07T04:20:00.580Z,15.99
2023-06-07T04:22:05.759Z,16.02
2023-06-07T04:24:08.598Z,16.04
2023-06-07T04:26:12.640Z,16.08
2023-06-07T04:28:15.448Z,16.13
2023-06-07T04:30:19.228Z,16.12
2023-06-07T04:32:21.966Z,16.16
2023-06-07T04:34:25.229Z,16.19
2023-06-07T04:36:29.451Z,16.23
2023-06-07T04:38:33.348Z,16.23
2023-06-07T04:40:42.090Z,16.31
2023-06-07T04:42:56.769Z,16.31
2023-06-07T04:45:01.666Z,16.32
2023-06-07T04:47:09.886Z,16.34
2023-06-07T04:49:18.244Z,16.34
2023-06-07T04:51:21.865Z,16.37
2023-06-07T04:53:24.532Z,16.37
2023-06-07T04:55:29.385Z,16.37
2023-06-07T04:57:33.858Z,16.38
2023-06-07T04:59:43.521Z,16.43
2023-06-07T05:01:46.813Z,16.48
2023-06-07T05:03:53.680Z,16.53
2023-06-07T05:05:56.581Z,16.57
2023-06-07T05:07:59.645Z,16.58
2023-06-07T05:10:03.520Z,16.61
2023-06-07T05:12:07.481Z,16.63
2023-06-07T05:14:10.112Z,16.64
2023-06-07T05:16:17.428Z,16.67
2023-06-07T05:18:21.165Z,16.69
2023-06-07T05:20:25.997Z,16.74
2023-06-07T05:22:28.643Z,16.77
2023-06-07T05:24:31.258Z,16.82
2023-06-07T05:26:33.854Z,16.86
2023-06-07T05:28:36.563Z,16.88
2023-06-07T05:30:39.535Z,16.92
2023-06-07T05:32:43.794Z,16.93
2023-06-07T05:34:50.020Z,16.97
2023-06-07T05:36:52.806Z,16.97
2023-06-07T05:38:55.660Z,17.01
2023-06-07T05:40:58.309Z,17.02
2023-06-07T05:43:00.913Z,17.04
2023-06-07T05:45:03.574Z,16.99
2023-06-07T05:47:06.981Z,17.01
2023-06-07T05:49:11.144Z,17.01
2023-06-07T05:51:14.444Z,17.05
2023-06-07T05:53:18.754Z,17.08
2023-06-07T05:55:21.643Z,17.11
2023-06-07T05:57:24.584Z,17.15
2023-06-07T05:59:27.294Z,17.17
2023-06-07T06:01:30.336Z,17.20
2023-06-07T06:03:33.036Z,17.23
2023-06-07T06:05:37.053Z,17.25
2023-06-07T06:07:40.052Z,17.27
2023-06-07T06:09:43.165Z,17.28
2023-06-07T06:11:45.806Z,17.31
2023-06-07T06:13:49.650Z,17.33
2023-06-07T06:15:52.312Z,17.33
2023-06-07T06:17:55.573Z,17.34
2023-06-07T06:19:58.413Z,17.40
2023-06-07T06:22:02.528Z,17.40
2023-06-07T06:24:06.026Z,17.36
2023-06-07T06:26:08.654Z,17.38
2023-06-07T06:28:11.289Z,17.38
2023-06-07T06:30:14.450Z,17.39
2023-06-07T06:32:17.139Z,17.39
2023-06-07T06:34:19.962Z,17.40
2023-06-07T06:36:22.663Z,17.43
2023-06-07T06:38:26.920Z,17.46
2023-06-07T06:40:29.641Z,17.48
2023-06-07T06:42:32.297Z,17.50
2023-06-07T06:44:34.919Z,17.53
2023-06-07T06:46:37.833Z,17.53
2023-06-07T06:48:41.248Z,17.57
2023-06-07T06:50:45.652Z,17.59
2023-06-07T06:52:48.292Z,17.63
2023-06-07T06:54:52.278Z,17.65
2023-06-07T06:56:55.552Z,17.68
2023-06-07T06:58:58.169Z,17.72
2023-06-07T07:01:00.748Z,17.75
2023-06-07T07:03:03.662Z,17.77
2023-06-07T07:05:07.489Z,17.81
2023-06-07T07:07:10.122Z,17.80
2023-06-07T07:09:14.098Z,17.83
2023-06-07T07:11:18.061Z,17.85
2023-06-07T07:13:20.653Z,17.87
2023-06-07T07:15:24.405Z,17.90
2023-06-07T07:17:27.064Z,17.93
2023-06-07T07:19:29.671Z,17.97
2023-06-07T07:21:32.354Z,17.98
2023-06-07T07:23:34.974Z,18.00
2023-06-07T07:25:37.608Z,18.00
2023-06-07T07:27:41.597Z,18.07
2023-06-07T07:29:44.231Z,18.05
2023-06-07T07:31:48.652Z,18.09
2023-06-07T07:33:51.307Z,18.09
2023-06-07T07:35:54.571Z,18.10
2023-06-07T07:38:02.416Z,18.13
2023-06-07T07:40:07.046Z,18.17
2023-06-07T07:42:10.392Z,18.22
2023-06-07T07:44:16.852Z,18.26
2023-06-07T07:46:19.559Z,18.29
2023-06-07T07:48:22.409Z,18.31
2023-06-07T07:50:25.078Z,18.34
2023-06-07T07:52:27.686Z,18.36
2023-06-07T07:54:30.689Z,18.39
2023-06-07T07:56:33.282Z,18.41
2023-06-07T07:58:36.415Z,18.44
2023-06-07T08:00:41.784Z,18.45
2023-06-07T08:02:44.763Z,18.48
2023-06-07T08:04:47.577Z,18.50
2023-06-07T08:06:50.220Z,18.54
2023-06-07T08:08:52.981Z,18.55
2023-06-07T08:10:55.648Z,18.55
2023-06-07T08:12:58.284Z,18.59
2023-06-07T08:15:00.924Z,18.63
2023-06-07T08:17:05.523Z,18.72
2023-06-07T08:19:08.463Z,18.71
2023-06-07T08:21:12.996Z,18.73
2023-06-07T08:23:15.804Z,18.74
2023-06-07T08:25:18.626Z,18.77
2023-06-07T08:27:21.746Z,18.79
2023-06-07T08:29:24.369Z,18.84
2023-06-07T08:31:28.345Z,18.88
2023-06-07T08:33:32.492Z,18.93
2023-06-07T08:35:35.142Z,18.96
2023-06-07T08:37:37.737Z,18.98
2023-06-07T08:39:40.469Z,19.01
2023-06-07T08:41:43.158Z,19.01
2023-06-07T08:43:48.600Z,19.02
2023-06-07T08:45:53.936Z,19.05
2023-06-07T08:47:59.451Z,19.07
2023-06-07T08:50:04.748Z,19.09
2023-06-07T08:54:22.488Z,19.15
2023-06-07T08:56:28.567Z,19.18
2023-06-07T08:58:31.529Z,19.22
2023-06-07T09:00:34.183Z,19.26
2023-06-07T09:02:37.568Z,19.29
2023-06-07T09:04:41.499Z,19.32
2023-06-07T09:06:46.037Z,19.36
2023-06-07T09:08:48.765Z,19.39
2023-06-07T09:10:51.385Z,19.42
2023-06-07T09:12:54.008Z,19.44
2023-06-07T09:14:57.575Z,19.47
2023-06-07T09:17:01.754Z,19.51
2023-06-07T09:19:04.456Z,19.54
2023-06-07T09:21:20.752Z,19.57
2023-06-07T09:23:24.726Z,19.61
2023-06-07T09:25:28.508Z,19.63
2023-06-07T09:27:32.066Z,19.68
2023-06-07T09:29:41.436Z,19.68
2023-06-07T09:31:44.678Z,19.71
2023-06-07T09:33:47.567Z,19.74
2023-06-07T09:36:03.724Z,19.79
2023-06-07T09:38:07.778Z,19.84
2023-06-07T09:40:14.648Z,19.87
2023-06-07T09:42:18.291Z,19.90
2023-06-07T09:44:25.019Z,19.92
2023-06-07T09:46:37.824Z,19.94
2023-06-07T09:48:51.230Z,19.96
2023-06-07T09:50:57.369Z,20.00
2023-06-07T09:53:02.263Z,20.03
2023-06-07T09:55:07.796Z,20.07
2023-06-07T09:57:13.861Z,20.12
2023-06-07T09:59:17.805Z,20.15
2023-06-07T10:01:34.698Z,20.18
2023-06-07T10:03:48.078Z,20.18
2023-06-07T10:05:51.405Z,20.23
2023-06-07T10:07:58.962Z,20.26
2023-06-07T10:10:04.023Z,20.30
2023-06-07T10:12:09.926Z,20.35
2023-06-07T10:14:15.182Z,20.40
2023-06-07T10:16:20.001Z,20.41
2023-06-07T10:18:27.459Z,20.43
2023-06-07T10:20:32.075Z,20.45
2023-06-07T10:22:40.107Z,20.46
2023-06-07T10:24:53.047Z,20.49
2023-06-07T10:26:57.042Z,20.53
2023-06-07T10:29:08.004Z,20.55
2023-06-07T10:31:14.600Z,20.58
2023-06-07T10:33:18.201Z,20.60
2023-06-07T10:35:22.450Z,20.59
2023-06-07T10:37:25.822Z,20.63
2023-06-07T10:39:30.765Z,20.66
2023-06-07T10:41:34.392Z,20.76
2023-06-07T10:43:39.324Z,20.73
2023-06-07T10:45:42.230Z,20.75
2023-06-07T10:47:47.093Z,20.79
2023-06-07T10:49:50.434Z,20.84
2023-06-07T10:52:06.829Z,20.82
2023-06-07T10:54:09.788Z,20.87
2023-06-07T10:56:28.919Z,20.90
2023-06-07T10:58:31.951Z,20.94
2023-06-07T11:00:36.614Z,21.00
2023-06-07T11:02:39.519Z,21.03
2023-06-07T11:04:58.013Z,21.07
2023-06-07T11:07:22.157Z,21.10
2023-06-07T11:09:30.752Z,21.14
2023-06-07T11:11:45.394Z,21.17
2023-06-07T11:14:13.948Z,21.19
2023-06-07T11:16:43.924Z,21.24
2023-06-07T11:18:56.503Z,21.32
2023-06-07T11:21:00.629Z,21.35
2023-06-07T11:23:26.291Z,21.37
2023-06-07T11:25:29.318Z,21.45
2023-06-07T11:27:32.119Z,21.42
2023-06-07T11:29:37.401Z,21.47
2023-06-07T11:31:40.550Z,21.55
2023-06-07T11:33:43.726Z,21.56
2023-06-07T11:35:46.964Z,21.60
2023-06-07T11:37:50.912Z,21.67
2023-06-07T11:39:53.517Z,21.71
2023-06-07T11:41:56.290Z,21.71
2023-06-07T11:44:02.840Z,21.75
2023-06-07T11:46:05.887Z,21.78
2023-06-07T11:48:09.090Z,21.87
2023-06-07T11:50:11.858Z,21.88
2023-06-07T11:52:14.449Z,21.89
2023-06-07T11:54:20.805Z,21.90
2023-06-07T11:56:23.506Z,21.92
2023-06-07T11:58:26.825Z,21.95
2023-06-07T12:00:31.742Z,21.98
2023-06-07T12:02:41.050Z,22.05
2023-06-07T12:04:45.626Z,22.08
2023-06-07T12:06:49.834Z,22.15
2023-06-07T12:08:52.540Z,22.18
2023-06-07T12:10:57.265Z,22.18
2023-06-07T12:13:08.682Z,22.21
2023-06-07T12:15:11.873Z,22.24
2023-06-07T12:17:14.542Z,22.31
2023-06-07T12:19:17.160Z,22.35
2023-06-07T12:21:20.024Z,22.43
2023-06-07T12:23:22.797Z,22.45
2023-06-07T12:25:25.568Z,22.47
2023-06-07T12:27:31.667Z,22.47
2023-06-07T12:29:34.443Z,22.50
2023-06-07T12:31:41.352Z,22.56
2023-06-07T12:33:54.418Z,22.59
2023-06-07T12:35:58.949Z,22.87
2023-06-07T12:38:01.652Z,23.50
2023-06-07T12:40:05.683Z,24.33
2023-06-07T12:42:09.121Z,25.29
2023-06-07T12:44:13.685Z,26.17
2023-06-07T12:46:16.427Z,26.93
2023-06-07T12:48:19.066Z,27.68
2023-06-07T12:50:21.728Z,28.31
2023-06-07T12:52:24.421Z,28.84
2023-06-07T12:54:27.064Z,29.26
2023-06-07T12:56:30.519Z,29.62
2023-06-07T12:58:33.621Z,29.88
2023-06-07T13:00:37.846Z,29.92
2023-06-07T13:02:40.804Z,30.00
2023-06-07T13:04:43.460Z,29.81
2023-06-07T13:06:46.038Z,29.67
2023-06-07T13:08:48.675Z,29.34
2023-06-07T13:10:51.407Z,29.23
2023-06-07T13:12:54.325Z,29.48
2023-06-07T13:14:56.973Z,29.18
2023-06-07T13:17:01.395Z,29.04
2023-06-07T13:19:04.635Z,28.87
2023-06-07T13:21:07.232Z,28.73
2023-06-07T13:23:10.383Z,28.72
2023-06-07T13:25:13.467Z,28.68
2023-06-07T13:27:16.093Z,28.49
2023-06-07T13:29:19.550Z,28.30
2023-06-07T13:31:22.233Z,28.16
2023-06-07T13:33:26.241Z,27.91
2023-06-07T13:35:31.828Z,27.74
2023-06-07T13:37:36.436Z,27.71
2023-06-07T13:39:38.993Z,27.86
2023-06-07T13:41:42.662Z,27.70
2023-06-07T13:43:59.442Z,27.64
2023-06-07T13:46:06.578Z,27.47
2023-06-07T13:48:10.502Z,27.39
2023-06-07T13:50:14.597Z,27.33
2023-06-07T13:52:17.819Z,27.35
2023-06-07T13:54:20.487Z,27.25
2023-06-07T13:56:23.611Z,27.31
2023-06-07T13:58:26.429Z,27.30
2023-06-07T14:00:30.072Z,27.28
2023-06-07T14:02:32.936Z,27.26
2023-06-07T14:04:35.818Z,27.27
2023-06-07T14:06:40.083Z,27.38
2023-06-07T14:08:42.873Z,27.34
2023-06-07T14:10:46.024Z,27.38
2023-06-07T14:12:49.106Z,27.36
2023-06-07T14:14:51.841Z,27.42
2023-06-07T14:16:55.126Z,27.52
2023-06-07T14:18:58.011Z,27.53
2023-06-07T14:21:00.748Z,27.59
2023-06-07T14:23:05.991Z,27.66
2023-06-07T14:25:09.438Z,27.77
2023-06-07T14:27:13.018Z,27.78
2023-06-07T14:29:16.278Z,27.80
2023-06-07T14:31:21.860Z,27.91
2023-06-07T14:33:24.635Z,27.84
2023-06-07T14:35:27.265Z,27.90
2023-06-07T14:37:29.920Z,27.92
2023-06-07T14:39:33.895Z,28.01
2023-06-07T14:41:36.679Z,28.02
2023-06-07T14:43:39.357Z,27.99
2023-06-07T14:45:42.045Z,28.07
2023-06-07T14:47:44.718Z,28.14
2023-06-07T14:49:47.424Z,28.09
2023-06-07T14:51:50.360Z,27.95
2023-06-07T14:53:52.947Z,28.15
2023-06-07T14:55:57.171Z,28.16
2023-06-07T14:58:01.402Z,28.15
2023-06-07T15:00:06.859Z,28.26
2023-06-07T15:02:10.797Z,28.26
2023-06-07T15:04:13.519Z,28.27
2023-06-07T15:06:16.279Z,28.39
2023-06-07T15:08:18.894Z,28.52
2023-06-07T15:10:21.735Z,28.49
2023-06-07T15:12:25.891Z,28.50
2023-06-07T15:14:28.706Z,28.75
2023-06-07T15:16:31.592Z,28.76
2023-06-07T15:18:34.276Z,28.81
2023-06-07T15:20:37.153Z,28.78
2023-06-07T15:22:39.986Z,28.85
2023-06-07T15:24:44.607Z,28.95
2023-06-07T15:26:47.315Z,29.09
2023-06-07T15:28:51.280Z,29.16
2023-06-07T15:30:53.874Z,29.14
2023-06-07T15:32:56.523Z,29.12
2023-06-07T15:34:59.847Z,29.19
2023-06-07T15:37:02.508Z,29.13
2023-06-07T15:39:05.130Z,29.22
2023-06-07T15:41:09.515Z,29.23
2023-06-07T15:43:12.521Z,29.22
2023-06-07T15:45:16.916Z,29.23
2023-06-07T15:47:19.538Z,29.15
2023-06-07T15:49:22.125Z,29.21
2023-06-07T15:51:24.806Z,29.16
2023-06-07T15:53:27.425Z,29.20
2023-06-07T15:55:30.121Z,29.25
2023-06-07T15:57:32.720Z,29.32
2023-06-07T15:59:36.253Z,29.33
2023-06-07T16:01:41.033Z,29.23
2023-06-07T16:03:55.661Z,29.11
2023-06-07T16:05:59.237Z,29.22
2023-06-07T16:08:07.504Z,29.29
2023-06-07T16:10:15.951Z,29.26
2023-06-07T16:12:18.588Z,29.24
2023-06-07T16:14:21.221Z,29.15
2023-06-07T16:16:23.910Z,29.09
2023-06-07T16:18:27.885Z,29.15
2023-06-07T16:20:30.538Z,29.19
2023-06-07T16:22:33.208Z,29.14
2023-06-07T16:24:36.113Z,29.09
2023-06-07T16:26:38.737Z,29.05
2023-06-07T16:28:41.370Z,29.03
2023-06-07T16:30:44.012Z,29.03
2023-06-07T16:32:46.814Z,29.05
2023-06-07T16:34:50.779Z,29.04
2023-06-07T16:36:53.379Z,29.07
2023-06-07T16:38:56.023Z,29.09
2023-06-07T16:40:58.619Z,28.88
2023-06-07T16:43:01.182Z,28.67
2023-06-07T16:45:03.964Z,28.51
2023-06-07T16:47:07.059Z,28.43
2023-06-07T16:49:09.700Z,28.36
2023-06-07T16:51:13.776Z,28.30
2023-06-07T16:53:16.569Z,28.31
2023-06-07T16:55:19.183Z,28.39
2023-06-07T16:57:21.834Z,28.30
2023-06-07T16:59:25.980Z,28.21
2023-06-07T17:01:30.477Z,28.06
2023-06-07T17:03:33.324Z,27.85
2023-06-07T17:05:36.034Z,27.71
2023-06-07T17:07:39.972Z,27.66
2023-06-07T17:09:43.121Z,27.69
2023-06-07T17:11:45.804Z,27.69
2023-06-07T17:13:48.445Z,27.71
2023-06-07T17:15:51.602Z,27.66
2023-06-07T17:17:54.313Z,27.59
2023-06-07T17:19:56.954Z,27.55
2023-06-07T17:21:59.562Z,27.52
2023-06-07T17:24:03.544Z,27.49
2023-06-07T17:26:07.747Z,27.50
2023-06-07T17:28:10.426Z,27.47
2023-06-07T17:30:13.865Z,27.45
2023-06-07T17:32:16.582Z,27.42
2023-06-07T17:34:19.184Z,27.30
2023-06-07T17:36:22.644Z,27.18
2023-06-07T17:38:25.224Z,26.96
2023-06-07T17:40:29.194Z,26.91
2023-06-07T17:42:31.838Z,26.80
2023-06-07T17:44:37.710Z,26.83
2023-06-07T17:46:40.639Z,26.73
2023-06-07T17:48:43.334Z,26.66
2023-06-07T17:50:47.545Z,26.66
2023-06-07T17:52:50.701Z,26.70
2023-06-07T17:54:53.296Z,26.68
2023-06-07T17:56:57.260Z,26.60
2023-06-07T17:58:59.839Z,26.50
2023-06-07T18:01:02.566Z,26.50
2023-06-07T18:03:05.506Z,26.46
2023-06-07T18:05:08.429Z,26.32
2023-06-07T18:07:11.069Z,26.32
2023-06-07T18:09:13.725Z,26.23
2023-06-07T18:11:16.450Z,26.11
2023-06-07T18:13:20.605Z,26.04
2023-06-07T18:15:23.345Z,25.96
2023-06-07T18:17:26.065Z,25.84
2023-06-07T18:19:28.668Z,25.79
2023-06-07T18:21:31.295Z,25.69
2023-06-07T18:23:33.995Z,25.64
2023-06-07T18:25:36.725Z,25.56
2023-06-07T18:27:39.515Z,25.48
2023-06-07T18:29:43.515Z,25.40
2023-06-07T18:31:46.275Z,25.30
2023-06-07T18:33:49.036Z,25.26
2023-06-07T18:35:51.748Z,25.21
2023-06-07T18:37:54.403Z,25.18
2023-06-07T18:39:56.997Z,25.17
2023-06-07T18:41:59.611Z,25.17
2023-06-07T18:44:02.326Z,25.13
2023-06-07T18:46:06.535Z,25.13
2023-06-07T18:48:10.255Z,25.09
2023-06-07T18:50:13.018Z,25.02
2023-06-07T18:52:15.794Z,24.99
2023-06-07T18:54:18.364Z,24.95
2023-06-07T18:56:22.799Z,24.93
2023-06-07T18:58:25.586Z,24.87
2023-06-07T19:00:28.423Z,24.82
2023-06-07T19:02:32.515Z,24.77
2023-06-07T19:04:35.376Z,24.73
2023-06-07T19:06:37.987Z,24.66
2023-06-07T19:08:42.869Z,24.57
2023-06-07T19:10:45.522Z,24.49
2023-06-07T19:12:48.165Z,24.43
2023-06-07T19:14:50.791Z,24.40
2023-06-07T19:16:53.436Z,24.37
2023-06-07T19:18:57.450Z,24.37
2023-06-07T19:21:00.071Z,24.35
2023-06-07T19:23:02.676Z,24.30
2023-06-07T19:25:06.307Z,24.21
2023-06-07T19:27:09.388Z,24.17
2023-06-07T19:29:12.004Z,24.11
2023-06-07T19:31:14.823Z,24.05
2023-06-07T19:33:17.481Z,24.01
2023-06-07T19:35:21.481Z,23.97
2023-06-07T19:37:24.074Z,23.94
2023-06-07T19:39:26.660Z,23.93
2023-06-07T19:41:29.292Z,23.90
2023-06-07T19:43:31.884Z,23.86
2023-06-07T19:45:34.490Z,23.82
2023-06-07T19:47:37.608Z,23.77
2023-06-07T19:49:42.359Z,23.70
2023-06-07T19:51:46.404Z,23.62
2023-06-07T19:53:49.049Z,23.54
2023-06-07T19:55:51.792Z,23.45
2023-06-07T19:57:54.441Z,23.34
2023-06-07T19:59:57.017Z,23.28
2023-06-07T20:02:00.996Z,23.23
2023-06-07T20:04:03.765Z,23.18
2023-06-07T20:06:06.465Z,23.14
2023-06-07T20:08:11.609Z,23.09
2023-06-07T20:10:14.827Z,23.02
2023-06-07T20:12:17.579Z,22.98
2023-06-07T20:14:20.307Z,22.91
2023-06-07T20:16:23.129Z,22.84
2023-06-07T20:18:25.926Z,22.75
2023-06-07T20:20:28.530Z,22.69
2023-06-07T20:22:32.839Z,22.67
2023-06-07T20:24:36.787Z,22.65
2023-06-07T20:26:39.420Z,22.63
2023-06-07T20:28:42.028Z,22.63
2023-06-07T20:30:44.656Z,22.63
2023-06-07T20:32:47.684Z,22.62
2023-06-07T20:34:50.335Z,22.58
2023-06-07T20:36:52.965Z,22.56
2023-06-07T20:38:55.658Z,22.54
2023-06-07T20:40:59.627Z,22.52
2023-06-07T20:43:02.429Z,22.49
2023-06-07T20:45:05.658Z,22.43
2023-06-07T20:47:08.469Z,22.38
2023-06-07T20:49:11.274Z,22.33
2023-06-07T20:51:13.910Z,22.33
2023-06-07T20:53:16.512Z,22.33
2023-06-07T20:55:19.115Z,22.33
2023-06-07T20:57:23.073Z,22.32
2023-06-07T20:59:25.846Z,22.32
2023-06-07T21:01:28.548Z,22.28
2023-06-07T21:03:32.085Z,22.26
2023-06-07T21:05:35.171Z,22.22
2023-06-07T21:07:37.824Z,22.19
2023-06-07T21:09:40.699Z,22.13
2023-06-07T21:11:43.331Z,22.09
2023-06-07T21:13:47.368Z,22.06
2023-06-07T21:15:50.253Z,22.02
2023-06-07T21:17:52.933Z,21.99
2023-06-07T21:19:56.096Z,21.98
2023-06-07T21:21:58.711Z,21.94
2023-06-07T21:24:01.376Z,21.90
2023-06-07T21:26:03.998Z,21.84
2023-06-07T21:28:06.976Z,21.81
2023-06-07T21:30:11.528Z,21.78
2023-06-07T21:32:14.164Z,21.80
2023-06-07T21:34:16.803Z,21.82
2023-06-07T21:36:19.421Z,21.84
2023-06-07T21:38:22.036Z,21.83
2023-06-07T21:40:24.705Z,21.80
2023-06-07T21:42:27.313Z,21.74
2023-06-07T21:44:29.946Z,21.71
2023-06-07T21:46:34.088Z,21.70
2023-06-07T21:48:37.793Z,21.67
2023-06-07T21:50:40.499Z,21.62
2023-06-07T21:52:43.124Z,21.60
2023-06-07T21:54:47.887Z,21.57
2023-06-07T21:56:50.578Z,21.55
2023-06-07T21:58:53.169Z,21.53
2023-06-07T22:00:55.859Z,21.51
2023-06-07T22:03:00.132Z,21.47
2023-06-07T22:05:02.783Z,21.44
2023-06-07T22:07:05.646Z,21.36
2023-06-07T22:09:08.266Z,21.30
2023-06-07T22:11:10.866Z,21.24
2023-06-07T22:13:17.816Z,21.19
2023-06-07T22:15:21.152Z,21.12
2023-06-07T22:17:23.917Z,21.08
2023-06-07T22:19:28.114Z,21.01
2023-06-07T22:21:31.417Z,20.96
2023-06-07T22:23:34.602Z,20.95
2023-06-07T22:25:41.623Z,20.93
2023-06-07T22:27:46.431Z,20.95
2023-06-07T22:29:49.289Z,20.94
2023-06-07T22:31:51.936Z,20.93
2023-06-07T22:33:54.613Z,20.93
2023-06-07T22:35:58.787Z,20.90
2023-06-07T22:38:06.104Z,20.89
2023-06-07T22:40:10.595Z,20.91
2023-06-07T22:42:13.541Z,20.91
2023-06-07T22:44:16.589Z,20.89
2023-06-07T22:46:19.182Z,20.88
2023-06-07T22:48:21.883Z,20.90
2023-06-07T22:50:27.148Z,20.87
2023-06-07T22:52:34.295Z,20.84
2023-06-07T22:54:36.952Z,20.80
2023-06-07T22:56:39.569Z,20.75
2023-06-07T22:58:42.219Z,20.74
2023-06-07T23:00:44.809Z,20.72
2023-06-07T23:02:48.969Z,20.74
2023-06-07T23:04:53.279Z,20.74
2023-06-07T23:06:59.139Z,20.75
2023-06-07T23:09:03.689Z,20.72
2023-06-07T23:11:06.695Z,20.69
2023-06-07T23:13:10.929Z,20.67
2023-06-07T23:15:14.452Z,20.67
2023-06-07T23:17:17.752Z,20.66
2023-06-07T23:19:20.944Z,20.66
2023-06-07T23:21:26.447Z,20.66
2023-06-07T23:23:30.529Z,20.64
2023-06-07T23:25:34.602Z,20.64
2023-06-07T23:27:37.233Z,20.64
2023-06-07T23:29:39.873Z,20.63
2023-06-07T23:31:42.674Z,20.63
2023-06-07T23:33:45.433Z,20.62
2023-06-07T23:35:48.106Z,20.62
2023-06-07T23:37:50.798Z,20.63
2023-06-07T23:39:53.458Z,20.61
2023-06-07T23:41:57.393Z,20.60
2023-06-07T23:44:00.182Z,20.60
2023-06-07T23:46:03.024Z,20.59
2023-06-07T23:48:07.721Z,20.58
2023-06-07T23:50:11.288Z,20.56
2023-06-07T23:52:13.983Z,20.55
2023-06-07T23:54:16.635Z,20.55
2023-06-07T23:56:19.388Z,20.53
2023-06-07T23:58:23.374Z,20.51
